sensor_id;sensor_type;location;lat;lon;timestamp;P1;durP1;ratioP1;P2;durP2;ratioP2
13571;SDS011;6857;53.484;10.216;2024-02-26T00:02:23;7.70;;;6.50;;
13571;SDS011;6857;53.484;10.216;2024-02-26T00:04:49;9.53;;;7.10;;
13571;SDS011;6857;53.484;10.216;2024-02-26T00:07:15;9.70;;;7.37;;
13571;SDS011;6857;53.484;10.216;2024-02-26T00:09:40;11.30;;;7.87;;
13571;SDS011;6857;53.484;10.216;2024-02-26T00:12:06;9.70;;;7.03;;
13571;SDS011;6857;53.484;10.216;2024-02-26T00:14:32;8.97;;;6.67;;
13571;SDS011;6857;53.484;10.216;2024-02-26T00:16:58;7.27;;;5.97;;
13571;SDS011;6857;53.484;10.216;2024-02-26T00:19:23;8.10;;;5.60;;
13571;SDS011;6857;53.484;10.216;2024-02-26T00:21:49;7.53;;;6.17;;
13571;SDS011;6857;53.484;10.216;2024-02-26T00:24:14;8.27;;;6.27;;
13571;SDS011;6857;53.484;10.216;2024-02-26T00:26:40;11.00;;;6.17;;
13571;SDS011;6857;53.484;10.216;2024-02-26T00:29:05;9.10;;;7.10;;
13571;SDS011;6857;53.484;10.216;2024-02-26T00:31:31;11.33;;;6.97;;
13571;SDS011;6857;53.484;10.216;2024-02-26T00:33:57;10.63;;;7.23;;
13571;SDS011;6857;53.484;10.216;2024-02-26T00:36:22;8.67;;;7.33;;
13571;SDS011;6857;53.484;10.216;2024-02-26T00:38:48;10.77;;;7.57;;
13571;SDS011;6857;53.484;10.216;2024-02-26T00:41:19;10.83;;;6.97;;
13571;SDS011;6857;53.484;10.216;2024-02-26T00:43:45;9.17;;;6.97;;
13571;SDS011;6857;53.484;10.216;2024-02-26T00:46:11;8.30;;;6.23;;
13571;SDS011;6857;53.484;10.216;2024-02-26T00:48:37;6.23;;;4.80;;
13571;SDS011;6857;53.484;10.216;2024-02-26T00:51:03;6.47;;;4.87;;
13571;SDS011;6857;53.484;10.216;2024-02-26T00:53:30;6.77;;;4.97;;
13571;SDS011;6857;53.484;10.216;2024-02-26T00:55:56;8.43;;;5.23;;
13571;SDS011;6857;53.484;10.216;2024-02-26T00:58:23;8.70;;;5.77;;
13571;SDS011;6857;53.484;10.216;2024-02-26T01:00:49;8.53;;;6.57;;
13571;SDS011;6857;53.484;10.216;2024-02-26T01:03:14;9.67;;;6.90;;
13571;SDS011;6857;53.484;10.216;2024-02-26T01:05:40;9.50;;;6.80;;
13571;SDS011;6857;53.484;10.216;2024-02-26T01:08:05;10.17;;;7.20;;
13571;SDS011;6857;53.484;10.216;2024-02-26T01:10:31;9.23;;;6.27;;
13571;SDS011;6857;53.484;10.216;2024-02-26T01:12:57;10.27;;;6.87;;
13571;SDS011;6857;53.484;10.216;2024-02-26T01:15:22;10.53;;;7.07;;
13571;SDS011;6857;53.484;10.216;2024-02-26T01:17:49;9.10;;;6.30;;
13571;SDS011;6857;53.484;10.216;2024-02-26T01:20:15;9.77;;;5.93;;
13571;SDS011;6857;53.484;10.216;2024-02-26T01:22:42;10.80;;;6.57;;
13571;SDS011;6857;53.484;10.216;2024-02-26T01:25:08;9.37;;;6.70;;
13571;SDS011;6857;53.484;10.216;2024-02-26T01:27:34;8.87;;;6.30;;
13571;SDS011;6857;53.484;10.216;2024-02-26T01:30:01;7.10;;;5.23;;
13571;SDS011;6857;53.484;10.216;2024-02-26T01:32:28;8.67;;;6.97;;
13571;SDS011;6857;53.484;10.216;2024-02-26T01:34:54;10.10;;;6.90;;
13571;SDS011;6857;53.484;10.216;2024-02-26T01:37:20;10.40;;;7.40;;
13571;SDS011;6857;53.484;10.216;2024-02-26T01:39:45;9.27;;;6.83;;
13571;SDS011;6857;53.484;10.216;2024-02-26T01:42:11;10.53;;;6.93;;
13571;SDS011;6857;53.484;10.216;2024-02-26T01:44:36;10.80;;;6.53;;
13571;SDS011;6857;53.484;10.216;2024-02-26T01:47:03;12.37;;;7.00;;
13571;SDS011;6857;53.484;10.216;2024-02-26T01:49:30;9.23;;;6.57;;
13571;SDS011;6857;53.484;10.216;2024-02-26T01:51:56;9.27;;;6.37;;
13571;SDS011;6857;53.484;10.216;2024-02-26T01:54:23;8.23;;;5.80;;
13571;SDS011;6857;53.484;10.216;2024-02-26T01:56:49;9.53;;;6.27;;
13571;SDS011;6857;53.484;10.216;2024-02-26T01:59:15;8.73;;;6.00;;
13571;SDS011;6857;53.484;10.216;2024-02-26T02:01:42;8.20;;;5.50;;
13571;SDS011;6857;53.484;10.216;2024-02-26T02:04:10;7.47;;;5.10;;
13571;SDS011;6857;53.484;10.216;2024-02-26T02:06:36;7.80;;;5.13;;
13571;SDS011;6857;53.484;10.216;2024-02-26T02:09:03;8.43;;;5.90;;
13571;SDS011;6857;53.484;10.216;2024-02-26T02:11:32;8.23;;;5.77;;
13571;SDS011;6857;53.484;10.216;2024-02-26T02:13:58;8.40;;;5.40;;
13571;SDS011;6857;53.484;10.216;2024-02-26T02:16:24;8.17;;;5.40;;
13571;SDS011;6857;53.484;10.216;2024-02-26T02:18:50;7.33;;;5.57;;
13571;SDS011;6857;53.484;10.216;2024-02-26T02:21:15;6.97;;;5.23;;
13571;SDS011;6857;53.484;10.216;2024-02-26T02:23:41;8.43;;;5.80;;
13571;SDS011;6857;53.484;10.216;2024-02-26T02:26:11;8.93;;;5.90;;
13571;SDS011;6857;53.484;10.216;2024-02-26T02:28:39;9.53;;;6.03;;
13571;SDS011;6857;53.484;10.216;2024-02-26T02:31:05;7.37;;;5.43;;
13571;SDS011;6857;53.484;10.216;2024-02-26T02:33:31;7.27;;;5.23;;
13571;SDS011;6857;53.484;10.216;2024-02-26T02:35:58;8.70;;;5.40;;
13571;SDS011;6857;53.484;10.216;2024-02-26T02:38:23;7.00;;;4.77;;
13571;SDS011;6857;53.484;10.216;2024-02-26T02:40:51;9.17;;;5.63;;
13571;SDS011;6857;53.484;10.216;2024-02-26T02:43:19;7.47;;;5.40;;
13571;SDS011;6857;53.484;10.216;2024-02-26T02:45:45;7.47;;;5.03;;
13571;SDS011;6857;53.484;10.216;2024-02-26T02:48:10;6.50;;;4.63;;
13571;SDS011;6857;53.484;10.216;2024-02-26T02:50:36;7.10;;;5.27;;
13571;SDS011;6857;53.484;10.216;2024-02-26T02:53:02;7.87;;;4.60;;
13571;SDS011;6857;53.484;10.216;2024-02-26T02:55:28;6.37;;;4.50;;
13571;SDS011;6857;53.484;10.216;2024-02-26T02:57:53;7.43;;;4.80;;
13571;SDS011;6857;53.484;10.216;2024-02-26T03:00:19;6.43;;;4.77;;
13571;SDS011;6857;53.484;10.216;2024-02-26T03:02:44;7.10;;;4.37;;
13571;SDS011;6857;53.484;10.216;2024-02-26T03:05:11;6.47;;;4.57;;
13571;SDS011;6857;53.484;10.216;2024-02-26T03:07:36;7.70;;;4.97;;
13571;SDS011;6857;53.484;10.216;2024-02-26T03:10:02;8.37;;;4.60;;
13571;SDS011;6857;53.484;10.216;2024-02-26T03:12:28;5.73;;;4.40;;
13571;SDS011;6857;53.484;10.216;2024-02-26T03:14:55;5.87;;;4.20;;
13571;SDS011;6857;53.484;10.216;2024-02-26T03:17:20;5.17;;;3.90;;
13571;SDS011;6857;53.484;10.216;2024-02-26T03:19:46;6.70;;;4.70;;
13571;SDS011;6857;53.484;10.216;2024-02-26T03:22:15;5.20;;;4.03;;
13571;SDS011;6857;53.484;10.216;2024-02-26T03:24:40;6.30;;;4.57;;
13571;SDS011;6857;53.484;10.216;2024-02-26T03:27:06;7.20;;;4.80;;
13571;SDS011;6857;53.484;10.216;2024-02-26T03:29:34;8.27;;;4.53;;
13571;SDS011;6857;53.484;10.216;2024-02-26T03:32:00;8.90;;;4.87;;
13571;SDS011;6857;53.484;10.216;2024-02-26T03:34:26;6.23;;;4.47;;
13571;SDS011;6857;53.484;10.216;2024-02-26T03:36:52;6.07;;;4.27;;
13571;SDS011;6857;53.484;10.216;2024-02-26T03:39:17;7.57;;;4.63;;
13571;SDS011;6857;53.484;10.216;2024-02-26T03:41:43;6.77;;;5.20;;
13571;SDS011;6857;53.484;10.216;2024-02-26T03:44:08;6.40;;;4.53;;
13571;SDS011;6857;53.484;10.216;2024-02-26T03:46:34;6.50;;;4.40;;
13571;SDS011;6857;53.484;10.216;2024-02-26T03:49:00;8.57;;;4.43;;
13571;SDS011;6857;53.484;10.216;2024-02-26T03:51:26;8.23;;;5.00;;
13571;SDS011;6857;53.484;10.216;2024-02-26T03:53:53;7.00;;;5.13;;
13571;SDS011;6857;53.484;10.216;2024-02-26T03:56:18;7.40;;;4.90;;
13571;SDS011;6857;53.484;10.216;2024-02-26T03:58:45;6.77;;;4.90;;
13571;SDS011;6857;53.484;10.216;2024-02-26T04:01:11;8.00;;;4.77;;
13571;SDS011;6857;53.484;10.216;2024-02-26T04:03:36;6.97;;;4.77;;
13571;SDS011;6857;53.484;10.216;2024-02-26T04:06:02;7.30;;;5.27;;
13571;SDS011;6857;53.484;10.216;2024-02-26T04:08:28;8.10;;;5.00;;
13571;SDS011;6857;53.484;10.216;2024-02-26T04:10:53;6.50;;;5.20;;
13571;SDS011;6857;53.484;10.216;2024-02-26T04:13:19;7.70;;;5.10;;
13571;SDS011;6857;53.484;10.216;2024-02-26T04:15:44;9.93;;;5.20;;
13571;SDS011;6857;53.484;10.216;2024-02-26T04:18:11;7.23;;;5.07;;
13571;SDS011;6857;53.484;10.216;2024-02-26T04:20:36;8.63;;;5.33;;
13571;SDS011;6857;53.484;10.216;2024-02-26T04:23:03;8.23;;;5.40;;
13571;SDS011;6857;53.484;10.216;2024-02-26T04:25:28;6.50;;;4.77;;
13571;SDS011;6857;53.484;10.216;2024-02-26T04:27:54;8.63;;;5.33;;
13571;SDS011;6857;53.484;10.216;2024-02-26T04:30:19;7.10;;;5.00;;
13571;SDS011;6857;53.484;10.216;2024-02-26T04:32:45;8.80;;;5.97;;
13571;SDS011;6857;53.484;10.216;2024-02-26T04:35:10;8.40;;;5.90;;
13571;SDS011;6857;53.484;10.216;2024-02-26T04:37:36;8.63;;;5.63;;
13571;SDS011;6857;53.484;10.216;2024-02-26T04:40:02;9.03;;;6.47;;
13571;SDS011;6857;53.484;10.216;2024-02-26T04:42:27;8.83;;;5.90;;
13571;SDS011;6857;53.484;10.216;2024-02-26T04:44:56;9.43;;;5.53;;
13571;SDS011;6857;53.484;10.216;2024-02-26T04:47:22;10.13;;;6.10;;
13571;SDS011;6857;53.484;10.216;2024-02-26T04:49:50;9.13;;;6.10;;
13571;SDS011;6857;53.484;10.216;2024-02-26T04:52:17;8.53;;;5.87;;
13571;SDS011;6857;53.484;10.216;2024-02-26T04:54:43;8.07;;;5.70;;
13571;SDS011;6857;53.484;10.216;2024-02-26T04:57:09;11.37;;;6.47;;
13571;SDS011;6857;53.484;10.216;2024-02-26T04:59:34;9.27;;;5.57;;
13571;SDS011;6857;53.484;10.216;2024-02-26T05:02:00;9.77;;;5.40;;
13571;SDS011;6857;53.484;10.216;2024-02-26T05:04:25;9.33;;;5.70;;
13571;SDS011;6857;53.484;10.216;2024-02-26T05:06:51;7.90;;;5.57;;
13571;SDS011;6857;53.484;10.216;2024-02-26T05:09:16;7.57;;;5.13;;
13571;SDS011;6857;53.484;10.216;2024-02-26T05:11:42;7.03;;;4.67;;
13571;SDS011;6857;53.484;10.216;2024-02-26T05:14:08;6.97;;;5.17;;
13571;SDS011;6857;53.484;10.216;2024-02-26T05:16:33;8.70;;;5.93;;
13571;SDS011;6857;53.484;10.216;2024-02-26T05:18:59;10.23;;;5.77;;
13571;SDS011;6857;53.484;10.216;2024-02-26T05:21:24;8.10;;;5.30;;
13571;SDS011;6857;53.484;10.216;2024-02-26T05:23:50;8.90;;;6.03;;
13571;SDS011;6857;53.484;10.216;2024-02-26T05:26:19;8.40;;;5.70;;
13571;SDS011;6857;53.484;10.216;2024-02-26T05:28:46;7.73;;;5.53;;
13571;SDS011;6857;53.484;10.216;2024-02-26T05:31:15;10.13;;;6.20;;
13571;SDS011;6857;53.484;10.216;2024-02-26T05:33:41;9.77;;;5.57;;
13571;SDS011;6857;53.484;10.216;2024-02-26T05:36:06;7.67;;;5.17;;
13571;SDS011;6857;53.484;10.216;2024-02-26T05:38:32;8.87;;;5.83;;
13571;SDS011;6857;53.484;10.216;2024-02-26T05:41:00;8.33;;;5.73;;
13571;SDS011;6857;53.484;10.216;2024-02-26T05:43:26;9.60;;;5.50;;
13571;SDS011;6857;53.484;10.216;2024-02-26T05:45:52;9.67;;;6.30;;
13571;SDS011;6857;53.484;10.216;2024-02-26T05:48:18;9.47;;;5.93;;
13571;SDS011;6857;53.484;10.216;2024-02-26T05:50:44;9.20;;;6.23;;
13571;SDS011;6857;53.484;10.216;2024-02-26T05:53:10;8.83;;;5.77;;
13571;SDS011;6857;53.484;10.216;2024-02-26T05:55:36;9.33;;;5.97;;
13571;SDS011;6857;53.484;10.216;2024-02-26T05:58:02;8.20;;;5.93;;
13571;SDS011;6857;53.484;10.216;2024-02-26T06:00:28;9.63;;;6.13;;
13571;SDS011;6857;53.484;10.216;2024-02-26T06:02:54;7.83;;;5.67;;
13571;SDS011;6857;53.484;10.216;2024-02-26T06:05:19;7.23;;;5.53;;
13571;SDS011;6857;53.484;10.216;2024-02-26T06:07:45;8.07;;;5.80;;
13571;SDS011;6857;53.484;10.216;2024-02-26T06:10:10;8.17;;;5.97;;
13571;SDS011;6857;53.484;10.216;2024-02-26T06:12:36;8.53;;;6.00;;
13571;SDS011;6857;53.484;10.216;2024-02-26T06:15:02;8.97;;;5.37;;
13571;SDS011;6857;53.484;10.216;2024-02-26T06:17:29;9.43;;;5.80;;
13571;SDS011;6857;53.484;10.216;2024-02-26T06:19:54;11.07;;;6.23;;
13571;SDS011;6857;53.484;10.216;2024-02-26T06:22:20;7.93;;;5.40;;
13571;SDS011;6857;53.484;10.216;2024-02-26T06:24:45;10.50;;;6.87;;
13571;SDS011;6857;53.484;10.216;2024-02-26T06:27:11;9.10;;;6.23;;
13571;SDS011;6857;53.484;10.216;2024-02-26T06:29:37;9.27;;;6.17;;
13571;SDS011;6857;53.484;10.216;2024-02-26T06:32:03;9.87;;;6.37;;
13571;SDS011;6857;53.484;10.216;2024-02-26T06:34:28;11.00;;;6.73;;
13571;SDS011;6857;53.484;10.216;2024-02-26T06:36:54;7.87;;;5.97;;
13571;SDS011;6857;53.484;10.216;2024-02-26T06:39:19;10.40;;;6.87;;
13571;SDS011;6857;53.484;10.216;2024-02-26T06:41:45;10.23;;;6.93;;
13571;SDS011;6857;53.484;10.216;2024-02-26T06:44:12;9.47;;;6.63;;
13571;SDS011;6857;53.484;10.216;2024-02-26T06:46:38;11.50;;;7.17;;
13571;SDS011;6857;53.484;10.216;2024-02-26T06:49:04;11.87;;;6.73;;
13571;SDS011;6857;53.484;10.216;2024-02-26T06:51:30;12.93;;;7.03;;
13571;SDS011;6857;53.484;10.216;2024-02-26T06:53:55;13.13;;;7.33;;
13571;SDS011;6857;53.484;10.216;2024-02-26T06:56:21;10.53;;;7.17;;
13571;SDS011;6857;53.484;10.216;2024-02-26T06:58:46;10.10;;;6.70;;
13571;SDS011;6857;53.484;10.216;2024-02-26T07:01:12;9.87;;;7.10;;
13571;SDS011;6857;53.484;10.216;2024-02-26T07:03:40;11.23;;;7.17;;
13571;SDS011;6857;53.484;10.216;2024-02-26T07:06:05;10.93;;;6.73;;
13571;SDS011;6857;53.484;10.216;2024-02-26T07:08:31;10.33;;;6.73;;
13571;SDS011;6857;53.484;10.216;2024-02-26T07:10:57;9.60;;;6.83;;
13571;SDS011;6857;53.484;10.216;2024-02-26T07:13:23;12.13;;;7.00;;
13571;SDS011;6857;53.484;10.216;2024-02-26T07:15:48;7.13;;;5.77;;
13571;SDS011;6857;53.484;10.216;2024-02-26T07:18:14;10.10;;;7.10;;
13571;SDS011;6857;53.484;10.216;2024-02-26T07:20:39;8.97;;;6.30;;
13571;SDS011;6857;53.484;10.216;2024-02-26T07:23:05;9.23;;;6.73;;
13571;SDS011;6857;53.484;10.216;2024-02-26T07:25:31;9.33;;;6.83;;
13571;SDS011;6857;53.484;10.216;2024-02-26T07:27:57;7.17;;;5.47;;
13571;SDS011;6857;53.484;10.216;2024-02-26T07:30:22;9.60;;;6.40;;
13571;SDS011;6857;53.484;10.216;2024-02-26T07:32:49;9.03;;;6.67;;
13571;SDS011;6857;53.484;10.216;2024-02-26T07:35:15;12.77;;;6.57;;
13571;SDS011;6857;53.484;10.216;2024-02-26T07:37:42;7.70;;;6.07;;
13571;SDS011;6857;53.484;10.216;2024-02-26T07:40:08;8.17;;;5.77;;
13571;SDS011;6857;53.484;10.216;2024-02-26T07:42:34;9.63;;;6.10;;
13571;SDS011;6857;53.484;10.216;2024-02-26T07:44:59;7.60;;;6.00;;
13571;SDS011;6857;53.484;10.216;2024-02-26T07:47:25;8.47;;;5.20;;
13571;SDS011;6857;53.484;10.216;2024-02-26T07:49:50;8.57;;;5.93;;
13571;SDS011;6857;53.484;10.216;2024-02-26T07:52:16;10.87;;;7.47;;
13571;SDS011;6857;53.484;10.216;2024-02-26T07:54:41;7.97;;;5.90;;
13571;SDS011;6857;53.484;10.216;2024-02-26T07:57:07;9.07;;;5.63;;
13571;SDS011;6857;53.484;10.216;2024-02-26T07:59:32;9.90;;;5.93;;
13571;SDS011;6857;53.484;10.216;2024-02-26T08:01:58;8.30;;;5.87;;
13571;SDS011;6857;53.484;10.216;2024-02-26T08:04:24;7.67;;;5.50;;
13571;SDS011;6857;53.484;10.216;2024-02-26T08:06:51;6.80;;;5.60;;
13571;SDS011;6857;53.484;10.216;2024-02-26T08:09:17;6.90;;;5.20;;
13571;SDS011;6857;53.484;10.216;2024-02-26T08:11:45;7.57;;;5.50;;
13571;SDS011;6857;53.484;10.216;2024-02-26T08:14:11;8.50;;;5.43;;
13571;SDS011;6857;53.484;10.216;2024-02-26T08:16:36;7.37;;;5.50;;
13571;SDS011;6857;53.484;10.216;2024-02-26T08:19:02;7.00;;;5.13;;
13571;SDS011;6857;53.484;10.216;2024-02-26T08:21:27;6.30;;;5.30;;
13571;SDS011;6857;53.484;10.216;2024-02-26T08:23:53;7.97;;;5.30;;
13571;SDS011;6857;53.484;10.216;2024-02-26T08:26:19;7.33;;;5.40;;
13571;SDS011;6857;53.484;10.216;2024-02-26T08:28:47;9.00;;;5.17;;
13571;SDS011;6857;53.484;10.216;2024-02-26T08:31:14;6.60;;;5.00;;
13571;SDS011;6857;53.484;10.216;2024-02-26T08:33:39;6.83;;;5.10;;
13571;SDS011;6857;53.484;10.216;2024-02-26T08:36:05;8.30;;;5.00;;
13571;SDS011;6857;53.484;10.216;2024-02-26T08:38:31;5.87;;;4.93;;
13571;SDS011;6857;53.484;10.216;2024-02-26T08:40:56;5.63;;;4.67;;
13571;SDS011;6857;53.484;10.216;2024-02-26T08:43:22;6.90;;;5.17;;
13571;SDS011;6857;53.484;10.216;2024-02-26T08:45:47;5.97;;;5.00;;
13571;SDS011;6857;53.484;10.216;2024-02-26T08:48:13;6.50;;;4.63;;
13571;SDS011;6857;53.484;10.216;2024-02-26T08:50:38;6.60;;;5.00;;
13571;SDS011;6857;53.484;10.216;2024-02-26T08:53:04;7.27;;;5.03;;
13571;SDS011;6857;53.484;10.216;2024-02-26T08:55:30;5.87;;;4.70;;
13571;SDS011;6857;53.484;10.216;2024-02-26T08:57:56;6.63;;;4.87;;
13571;SDS011;6857;53.484;10.216;2024-02-26T09:00:21;5.87;;;4.70;;
13571;SDS011;6857;53.484;10.216;2024-02-26T09:02:47;5.83;;;4.90;;
13571;SDS011;6857;53.484;10.216;2024-02-26T09:05:14;5.50;;;4.43;;
13571;SDS011;6857;53.484;10.216;2024-02-26T09:07:40;7.07;;;5.23;;
13571;SDS011;6857;53.484;10.216;2024-02-26T09:10:05;5.77;;;4.73;;
13571;SDS011;6857;53.484;10.216;2024-02-26T09:12:34;7.07;;;5.03;;
13571;SDS011;6857;53.484;10.216;2024-02-26T09:14:59;7.33;;;5.23;;
13571;SDS011;6857;53.484;10.216;2024-02-26T09:17:25;5.60;;;4.83;;
13571;SDS011;6857;53.484;10.216;2024-02-26T09:19:50;7.03;;;4.57;;
13571;SDS011;6857;53.484;10.216;2024-02-26T09:22:16;7.70;;;5.10;;
13571;SDS011;6857;53.484;10.216;2024-02-26T09:24:41;7.17;;;5.07;;
13571;SDS011;6857;53.484;10.216;2024-02-26T09:27:07;5.40;;;4.40;;
13571;SDS011;6857;53.484;10.216;2024-02-26T09:29:32;5.53;;;4.53;;
13571;SDS011;6857;53.484;10.216;2024-02-26T09:32:00;5.83;;;4.47;;
13571;SDS011;6857;53.484;10.216;2024-02-26T09:34:26;6.70;;;4.10;;
13571;SDS011;6857;53.484;10.216;2024-02-26T09:36:51;5.07;;;4.20;;
13571;SDS011;6857;53.484;10.216;2024-02-26T09:39:17;6.37;;;4.23;;
13571;SDS011;6857;53.484;10.216;2024-02-26T09:41:46;5.53;;;4.60;;
13571;SDS011;6857;53.484;10.216;2024-02-26T09:44:14;4.90;;;4.30;;
13571;SDS011;6857;53.484;10.216;2024-02-26T09:46:45;5.93;;;4.93;;
13571;SDS011;6857;53.484;10.216;2024-02-26T09:49:12;6.03;;;4.50;;
13571;SDS011;6857;53.484;10.216;2024-02-26T09:51:40;5.40;;;4.60;;
13571;SDS011;6857;53.484;10.216;2024-02-26T09:54:06;5.93;;;4.83;;
13571;SDS011;6857;53.484;10.216;2024-02-26T09:56:34;6.50;;;5.10;;
13571;SDS011;6857;53.484;10.216;2024-02-26T09:59:02;5.43;;;4.77;;
13571;SDS011;6857;53.484;10.216;2024-02-26T10:01:31;5.53;;;4.60;;
13571;SDS011;6857;53.484;10.216;2024-02-26T10:03:59;5.57;;;5.00;;
13571;SDS011;6857;53.484;10.216;2024-02-26T10:06:28;5.93;;;5.10;;
13571;SDS011;6857;53.484;10.216;2024-02-26T10:08:54;6.13;;;5.17;;
13571;SDS011;6857;53.484;10.216;2024-02-26T10:11:21;6.87;;;5.47;;
13571;SDS011;6857;53.484;10.216;2024-02-26T10:13:48;7.57;;;5.37;;
13571;SDS011;6857;53.484;10.216;2024-02-26T10:16:14;5.87;;;5.27;;
13571;SDS011;6857;53.484;10.216;2024-02-26T10:18:47;7.10;;;5.53;;
13571;SDS011;6857;53.484;10.216;2024-02-26T10:21:18;6.73;;;5.70;;
13571;SDS011;6857;53.484;10.216;2024-02-26T10:23:44;7.50;;;5.67;;
13571;SDS011;6857;53.484;10.216;2024-02-26T10:26:13;6.27;;;5.20;;
13571;SDS011;6857;53.484;10.216;2024-02-26T10:28:41;11.17;;;7.67;;
13571;SDS011;6857;53.484;10.216;2024-02-26T10:31:10;6.83;;;5.67;;
13571;SDS011;6857;53.484;10.216;2024-02-26T10:33:39;8.47;;;5.93;;
13571;SDS011;6857;53.484;10.216;2024-02-26T10:36:06;5.80;;;5.20;;
13571;SDS011;6857;53.484;10.216;2024-02-26T10:38:35;11.17;;;7.47;;
13571;SDS011;6857;53.484;10.216;2024-02-26T10:41:02;6.17;;;5.10;;
13571;SDS011;6857;53.484;10.216;2024-02-26T10:43:28;7.90;;;5.67;;
13571;SDS011;6857;53.484;10.216;2024-02-26T10:45:57;7.33;;;5.70;;
13571;SDS011;6857;53.484;10.216;2024-02-26T10:48:23;7.60;;;6.43;;
13571;SDS011;6857;53.484;10.216;2024-02-26T10:50:49;7.53;;;6.10;;
13571;SDS011;6857;53.484;10.216;2024-02-26T10:53:26;8.00;;;6.50;;
13571;SDS011;6857;53.484;10.216;2024-02-26T10:55:54;7.83;;;5.83;;
13571;SDS011;6857;53.484;10.216;2024-02-26T10:58:25;7.73;;;6.53;;
13571;SDS011;6857;53.484;10.216;2024-02-26T11:00:52;9.00;;;6.40;;
13571;SDS011;6857;53.484;10.216;2024-02-26T11:03:18;8.00;;;6.20;;
13571;SDS011;6857;53.484;10.216;2024-02-26T11:05:48;8.97;;;6.77;;
13571;SDS011;6857;53.484;10.216;2024-02-26T11:08:15;8.23;;;6.60;;
13571;SDS011;6857;53.484;10.216;2024-02-26T11:10:43;8.07;;;6.47;;
13571;SDS011;6857;53.484;10.216;2024-02-26T11:13:13;7.47;;;6.27;;
13571;SDS011;6857;53.484;10.216;2024-02-26T11:15:43;7.20;;;6.03;;
13571;SDS011;6857;53.484;10.216;2024-02-26T11:18:12;7.73;;;6.60;;
13571;SDS011;6857;53.484;10.216;2024-02-26T11:20:40;8.10;;;6.43;;
13571;SDS011;6857;53.484;10.216;2024-02-26T11:23:06;9.27;;;6.80;;
13571;SDS011;6857;53.484;10.216;2024-02-26T11:25:33;8.50;;;6.97;;
13571;SDS011;6857;53.484;10.216;2024-02-26T11:28:01;8.27;;;6.77;;
13571;SDS011;6857;53.484;10.216;2024-02-26T11:30:30;9.63;;;6.80;;
13571;SDS011;6857;53.484;10.216;2024-02-26T11:32:59;9.77;;;6.73;;
13571;SDS011;6857;53.484;10.216;2024-02-26T11:35:26;9.60;;;7.27;;
13571;SDS011;6857;53.484;10.216;2024-02-26T11:37:54;10.93;;;8.67;;
13571;SDS011;6857;53.484;10.216;2024-02-26T11:40:21;9.07;;;6.87;;
13571;SDS011;6857;53.484;10.216;2024-02-26T11:42:48;10.43;;;6.97;;
13571;SDS011;6857;53.484;10.216;2024-02-26T11:48:02;11.47;;;7.53;;
13571;SDS011;6857;53.484;10.216;2024-02-26T11:50:47;8.90;;;6.60;;
13571;SDS011;6857;53.484;10.216;2024-02-26T11:59:05;11.23;;;6.77;;
13571;SDS011;6857;53.484;10.216;2024-02-26T12:01:42;12.53;;;6.93;;
13571;SDS011;6857;53.484;10.216;2024-02-26T12:04:13;9.53;;;7.03;;
13571;SDS011;6857;53.484;10.216;2024-02-26T12:06:46;8.70;;;6.60;;
13571;SDS011;6857;53.484;10.216;2024-02-26T12:09:30;8.50;;;6.23;;
13571;SDS011;6857;53.484;10.216;2024-02-26T12:12:03;9.27;;;6.40;;
13571;SDS011;6857;53.484;10.216;2024-02-26T12:14:39;10.10;;;7.00;;
13571;SDS011;6857;53.484;10.216;2024-02-26T12:17:20;9.43;;;7.00;;
13571;SDS011;6857;53.484;10.216;2024-02-26T12:19:47;8.60;;;6.07;;
13571;SDS011;6857;53.484;10.216;2024-02-26T12:22:12;7.73;;;6.10;;
13571;SDS011;6857;53.484;10.216;2024-02-26T12:24:39;7.43;;;5.70;;
13571;SDS011;6857;53.484;10.216;2024-02-26T12:27:05;9.10;;;6.30;;
13571;SDS011;6857;53.484;10.216;2024-02-26T12:29:31;8.60;;;6.37;;
13571;SDS011;6857;53.484;10.216;2024-02-26T12:31:56;9.00;;;6.60;;
13571;SDS011;6857;53.484;10.216;2024-02-26T12:34:23;10.60;;;6.97;;
13571;SDS011;6857;53.484;10.216;2024-02-26T12:36:48;9.27;;;7.20;;
13571;SDS011;6857;53.484;10.216;2024-02-26T12:39:14;9.47;;;7.50;;
13571;SDS011;6857;53.484;10.216;2024-02-26T12:41:40;9.60;;;6.60;;
13571;SDS011;6857;53.484;10.216;2024-02-26T12:44:07;9.83;;;6.80;;
13571;SDS011;6857;53.484;10.216;2024-02-26T12:46:33;9.80;;;7.27;;
13571;SDS011;6857;53.484;10.216;2024-02-26T12:48:59;10.67;;;7.20;;
13571;SDS011;6857;53.484;10.216;2024-02-26T12:51:25;10.10;;;6.90;;
13571;SDS011;6857;53.484;10.216;2024-02-26T12:53:51;8.70;;;6.90;;
13571;SDS011;6857;53.484;10.216;2024-02-26T12:56:18;13.47;;;7.83;;
13571;SDS011;6857;53.484;10.216;2024-02-26T12:58:44;13.70;;;8.67;;
13571;SDS011;6857;53.484;10.216;2024-02-26T13:01:13;13.77;;;8.80;;
13571;SDS011;6857;53.484;10.216;2024-02-26T13:03:40;12.23;;;8.63;;
13571;SDS011;6857;53.484;10.216;2024-02-26T13:06:07;12.23;;;8.50;;
13571;SDS011;6857;53.484;10.216;2024-02-26T13:08:33;13.10;;;9.53;;
13571;SDS011;6857;53.484;10.216;2024-02-26T13:10:59;13.93;;;8.93;;
13571;SDS011;6857;53.484;10.216;2024-02-26T13:13:25;15.90;;;9.97;;
13571;SDS011;6857;53.484;10.216;2024-02-26T13:16:00;14.40;;;9.10;;
13571;SDS011;6857;53.484;10.216;2024-02-26T13:18:27;15.13;;;10.20;;
13571;SDS011;6857;53.484;10.216;2024-02-26T13:21:05;15.43;;;9.83;;
13571;SDS011;6857;53.484;10.216;2024-02-26T13:23:34;15.70;;;10.47;;
13571;SDS011;6857;53.484;10.216;2024-02-26T13:25:59;15.23;;;10.17;;
13571;SDS011;6857;53.484;10.216;2024-02-26T13:28:25;15.93;;;11.30;;
13571;SDS011;6857;53.484;10.216;2024-02-26T13:30:53;14.77;;;10.20;;
13571;SDS011;6857;53.484;10.216;2024-02-26T13:33:23;15.47;;;9.93;;
13571;SDS011;6857;53.484;10.216;2024-02-26T13:35:50;14.03;;;9.97;;
13571;SDS011;6857;53.484;10.216;2024-02-26T13:38:16;13.93;;;9.33;;
13571;SDS011;6857;53.484;10.216;2024-02-26T13:40:42;17.40;;;10.67;;
13571;SDS011;6857;53.484;10.216;2024-02-26T13:43:08;15.40;;;9.83;;
13571;SDS011;6857;53.484;10.216;2024-02-26T13:45:34;13.87;;;9.27;;
13571;SDS011;6857;53.484;10.216;2024-02-26T13:48:04;13.87;;;9.77;;
13571;SDS011;6857;53.484;10.216;2024-02-26T13:50:31;14.73;;;9.67;;
13571;SDS011;6857;53.484;10.216;2024-02-26T13:52:57;14.27;;;9.63;;
13571;SDS011;6857;53.484;10.216;2024-02-26T13:55:25;14.83;;;9.27;;
13571;SDS011;6857;53.484;10.216;2024-02-26T13:57:53;15.37;;;9.97;;
13571;SDS011;6857;53.484;10.216;2024-02-26T14:00:19;13.80;;;9.47;;
13571;SDS011;6857;53.484;10.216;2024-02-26T14:02:45;13.63;;;8.67;;
13571;SDS011;6857;53.484;10.216;2024-02-26T14:05:10;15.67;;;10.13;;
13571;SDS011;6857;53.484;10.216;2024-02-26T14:07:36;14.07;;;9.53;;
13571;SDS011;6857;53.484;10.216;2024-02-26T14:10:02;13.97;;;9.50;;
13571;SDS011;6857;53.484;10.216;2024-02-26T14:12:28;12.13;;;8.50;;
13571;SDS011;6857;53.484;10.216;2024-02-26T14:14:53;12.60;;;8.60;;
13571;SDS011;6857;53.484;10.216;2024-02-26T14:17:20;16.47;;;9.20;;
13571;SDS011;6857;53.484;10.216;2024-02-26T14:19:46;12.37;;;8.87;;
13571;SDS011;6857;53.484;10.216;2024-02-26T14:22:13;12.60;;;8.37;;
13571;SDS011;6857;53.484;10.216;2024-02-26T14:24:39;13.10;;;8.77;;
13571;SDS011;6857;53.484;10.216;2024-02-26T14:27:06;10.30;;;8.00;;
13571;SDS011;6857;53.484;10.216;2024-02-26T14:29:34;13.50;;;9.20;;
13571;SDS011;6857;53.484;10.216;2024-02-26T14:32:00;13.23;;;8.10;;
13571;SDS011;6857;53.484;10.216;2024-02-26T14:34:26;11.97;;;8.40;;
13571;SDS011;6857;53.484;10.216;2024-02-26T14:36:52;13.03;;;8.57;;
13571;SDS011;6857;53.484;10.216;2024-02-26T14:39:18;12.80;;;8.80;;
13571;SDS011;6857;53.484;10.216;2024-02-26T14:41:43;11.27;;;8.33;;
13571;SDS011;6857;53.484;10.216;2024-02-26T14:44:09;11.40;;;8.60;;
13571;SDS011;6857;53.484;10.216;2024-02-26T14:46:35;12.53;;;8.70;;
13571;SDS011;6857;53.484;10.216;2024-02-26T14:49:01;12.57;;;8.60;;